• Join FlightAware (Why Join?)
  • Login
  • US Flag 
11:58PM EDT


 

Airport Tracker/Info


-or-


 

Live Flight TrackerFlight Track Log ✈ CSN6877 ✈ 06-Sep-2013 ✈ ZWWW / URC - ZWKC / KCA

Flight Track Log - Related Links

Times and Time Zones

All times are in EDT time to prevent confusion due to time zone crossing. See the CSN6877 flight status page for this flight to view local times or setup timezone preferences in your user account.

Time Position Orientation Groundspeed Altitude Reporting Facility
EDT Latitude Longitude Course Direction KTS MPH feet Rate Location/Type
09:54AM 43.8196 87.2811 238° Southwest  Level Estimated
09:55AM 43.7318 87.0886 238° Southwest  Level Estimated
09:56AM 43.6436 86.8966 238° Southwest  Level Estimated
09:57AM 43.5551 86.7052 238° Southwest  Level Estimated
09:58AM 43.4663 86.5143 237° Southwest  Level Estimated
09:59AM 43.3772 86.3240 237° Southwest  Level Estimated
10:00AM 43.2878 86.1343 237° Southwest  Level Estimated
10:01AM 43.1980 85.9451 237° Southwest  Level Estimated
10:02AM 43.1080 85.7565 237° Southwest  Level Estimated
10:03AM 43.0176 85.5684 237° Southwest  Level Estimated
10:04AM 42.9269 85.3809 237° Southwest  Level Estimated
10:05AM 42.8360 85.1939 236° Southwest  Level Estimated
10:06AM 42.7447 85.0075 236° Southwest  Level Estimated
10:07AM 42.6531 84.8216 236° Southwest  Level Estimated
10:08AM 42.5612 84.6363 236° Southwest  Level Estimated
10:09AM 42.4691 84.4515 236° Southwest  Level Estimated
10:10AM 42.3766 84.2673 236° Southwest  Level Estimated
10:11AM 42.2838 84.0836 236° Southwest  Level Estimated
10:12AM 42.1908 83.9005 236° Southwest  Level Estimated
10:13AM 42.0974 83.7179 235° Southwest  Level Estimated
10:14AM 42.0038 83.5358 235° Southwest  Level Estimated
10:15AM 41.9098 83.3543 235° Southwest  Level Estimated
10:16AM 41.8156 83.1733 235° Southwest  Level Estimated
10:17AM 41.7211 82.9928 235° Southwest  Level Estimated
10:18AM 41.7181 82.9869 235° Southwest  Level Estimated
10:19AM 41.7181 82.9869 143° Southeast  Level Estimated
10:20AM 41.7181 82.9869 143° Southeast  Level Estimated
10:21AM 41.7181 82.9869 143° Southeast  Level Estimated
10:22AM 41.7181 82.9869 143° Southeast  Level Estimated
10:23AM 41.7181 82.9869 143° Southeast  Level Estimated
10:24AM 41.7181 82.9869 143° Southeast  Level Estimated
10:25AM 41.7181 82.9869 143° Southeast  Level Estimated
10:26AM 41.7181 82.9869 143° Southeast  Level Estimated
10:27AM 41.7181 82.9869 143° Southeast  Level Estimated
10:28AM 41.7181 82.9869 143° Southeast  Level Estimated
10:29AM 41.7181 82.9869 143° Southeast  Level Estimated